< < Back
Terminal Aerodrome Forecast


Current Version              Previous Versions:   1  2  3  4  5  6  7  8  9  

Terminal Aerodrome Forecast

616
FTUS42 KILM 290520
TAFFLO
TAF
KFLO 290520Z 2906/3006 16003KT P6SM SCT120
     FM291300 13007KT P6SM FEW040 SCT120
     FM300000 09003KT P6SM SCT120=



Latest METAR

019
SAUS70 KWBC 292000 RRA
MTRFLO
METAR KFLO 291953Z AUTO 10SM CLR 31/12 A3018 RMK AO2 SLP217 T03110122
TSNO


USA.gov is the U.S. government's official web portal to all federal, state and local government web resources and services.